Hugoton, Kansas
Current Conditions -  °F | °C
As of 11:15 PM on Wednesday 22 Oct 2014 (Local Time) from KLBL Reporting Station
Overcast Overcast  
Wind Chill: 63°   Ceiling: 1200
Heat Index: 63°   Visibility: 10mi
Dew Point: 57°   Wind: 14mph
Humidity: 82%   Direction: 200°SSW
Pressure: 30.1"   Gusts: NA
Location:  37.18°N, 101.35°W
Report Text: KLBL 230415Z AUTO 20012KT 10SM OVC012 17/14 A3010 RMK AO1
Loading
Personal Weather Stations






























Interactive Weather Map
Tropical Storm Tracking
New forecast layout! Learn more

10-Day Weather Forecast

Advertisements
Track Severe Weather on mobile